createdAt,value
2022-11-23T00:01:49.641Z,100.00
2022-11-23T00:04:00.402Z,100.00
2022-11-23T00:06:09.696Z,100.00
2022-11-23T00:08:18.200Z,100.00
2022-11-23T00:10:26.141Z,100.00
2022-11-23T00:12:36.759Z,100.00
2022-11-23T00:14:44.621Z,100.00
2022-11-23T00:16:53.653Z,100.00
2022-11-23T00:19:02.709Z,100.00
2022-11-23T00:21:12.062Z,100.00
2022-11-23T00:23:19.910Z,100.00
2022-11-23T00:25:27.706Z,100.00
2022-11-23T00:27:38.101Z,100.00
2022-11-23T00:29:46.017Z,100.00
2022-11-23T00:31:53.828Z,100.00
2022-11-23T00:34:02.400Z,100.00
2022-11-23T00:36:15.354Z,100.00
2022-11-23T00:38:23.155Z,100.00
2022-11-23T00:40:31.030Z,100.00
2022-11-23T00:42:42.823Z,100.00
2022-11-23T00:44:51.739Z,100.00
2022-11-23T00:46:59.925Z,100.00
2022-11-23T00:49:08.656Z,100.00
2022-11-23T00:51:19.110Z,100.00
2022-11-23T00:53:26.847Z,100.00
2022-11-23T00:55:34.689Z,100.00
2022-11-23T00:57:45.245Z,100.00
2022-11-23T00:59:53.059Z,100.00
2022-11-23T01:02:00.905Z,100.00
2022-11-23T01:04:10.756Z,100.00
2022-11-23T01:06:21.272Z,100.00
2022-11-23T01:08:29.197Z,100.00
2022-11-23T01:10:37.150Z,100.00
2022-11-23T01:12:49.207Z,100.00
2022-11-23T01:14:57.058Z,100.00
2022-11-23T01:17:04.822Z,100.00
2022-11-23T01:19:17.558Z,100.00
2022-11-23T01:21:30.659Z,100.00
2022-11-23T01:23:39.043Z,100.00
2022-11-23T01:25:46.882Z,100.00
2022-11-23T01:27:57.307Z,100.00
2022-11-23T01:30:05.109Z,100.00
2022-11-23T01:32:14.156Z,100.00
2022-11-23T01:34:21.996Z,100.00
2022-11-23T01:36:35.397Z,100.00
2022-11-23T01:38:44.252Z,100.00
2022-11-23T01:40:52.275Z,100.00
2022-11-23T01:43:03.864Z,100.00
2022-11-23T01:45:35.664Z,100.00
2022-11-23T01:47:43.747Z,100.00
2022-11-23T01:49:55.081Z,100.00
2022-11-23T01:52:06.945Z,100.00
2022-11-23T01:54:18.131Z,100.00
2022-11-23T01:56:31.700Z,100.00
2022-11-23T01:58:45.789Z,100.00
2022-11-23T02:00:55.217Z,100.00
2022-11-23T02:03:06.553Z,100.00
2022-11-23T02:05:15.479Z,100.00
2022-11-23T02:07:27.081Z,100.00
2022-11-23T02:09:36.956Z,100.00
2022-11-23T02:11:45.982Z,100.00
2022-11-23T02:13:57.738Z,100.00
2022-11-23T02:16:06.252Z,100.00
2022-11-23T02:18:19.922Z,100.00
2022-11-23T02:20:29.895Z,100.00
2022-11-23T02:22:46.814Z,100.00
2022-11-23T02:24:58.463Z,100.00
2022-11-23T02:27:09.720Z,100.00
2022-11-23T02:29:21.827Z,100.00
2022-11-23T02:31:29.809Z,100.00
2022-11-23T02:33:41.310Z,100.00
2022-11-23T02:35:54.278Z,100.00
2022-11-23T02:38:09.432Z,100.00
2022-11-23T02:40:27.977Z,100.00
2022-11-23T02:42:40.735Z,100.00
2022-11-23T02:44:54.477Z,100.00
2022-11-23T02:47:02.418Z,100.00
2022-11-23T02:49:10.260Z,100.00
2022-11-23T02:51:18.107Z,100.00
2022-11-23T02:53:26.029Z,100.00
2022-11-23T02:55:35.838Z,100.00
2022-11-23T02:57:46.439Z,100.00
2022-11-23T02:59:54.231Z,100.00
2022-11-23T03:02:02.229Z,100.00
2022-11-23T03:04:11.904Z,100.00
2022-11-23T03:06:19.699Z,100.00
2022-11-23T03:08:28.985Z,100.00
2022-11-23T03:10:36.970Z,100.00
2022-11-23T03:12:47.897Z,100.00
2022-11-23T03:14:55.952Z,100.00
2022-11-23T03:17:05.508Z,100.00
2022-11-23T03:19:18.625Z,100.00
2022-11-23T03:21:26.411Z,100.00
2022-11-23T03:23:34.528Z,100.00
2022-11-23T03:25:46.214Z,100.00
2022-11-23T03:27:59.159Z,100.00
2022-11-23T03:30:10.284Z,100.00
2022-11-23T03:32:18.981Z,100.00
2022-11-23T03:34:30.967Z,100.00
2022-11-23T03:36:38.708Z,100.00
2022-11-23T03:38:46.605Z,100.00
2022-11-23T03:41:15.250Z,100.00
2022-11-23T03:43:34.234Z,100.00
2022-11-23T03:45:42.109Z,100.00
2022-11-23T03:47:50.031Z,100.00
2022-11-23T03:49:59.007Z,100.00
2022-11-23T03:52:07.150Z,100.00
2022-11-23T03:54:14.958Z,100.00
2022-11-23T03:56:23.138Z,100.00
2022-11-23T03:58:33.523Z,100.00
2022-11-23T04:00:44.807Z,100.00
2022-11-23T04:02:55.405Z,100.00
2022-11-23T04:05:22.113Z,100.00
2022-11-23T04:07:50.248Z,100.00
2022-11-23T04:09:59.467Z,100.00
2022-11-23T04:12:22.820Z,100.00
2022-11-23T04:14:33.589Z,100.00
2022-11-23T04:16:41.565Z,100.00
2022-11-23T04:18:49.417Z,100.00
2022-11-23T04:20:57.771Z,100.00
2022-11-23T04:23:09.172Z,100.00
2022-11-23T04:25:20.216Z,100.00
2022-11-23T04:27:31.427Z,100.00
2022-11-23T04:29:42.076Z,100.00
2022-11-23T04:31:51.631Z,100.00
2022-11-23T04:34:00.575Z,100.00
2022-11-23T04:36:09.325Z,100.00
2022-11-23T04:38:17.106Z,100.00
2022-11-23T04:40:26.113Z,100.00
2022-11-23T04:42:43.154Z,100.00
2022-11-23T04:44:54.332Z,100.00
2022-11-23T04:47:02.345Z,100.00
2022-11-23T04:49:13.116Z,100.00
2022-11-23T04:51:25.132Z,100.00
2022-11-23T04:53:34.029Z,100.00
2022-11-23T04:55:42.032Z,100.00
2022-11-23T04:57:52.505Z,100.00
2022-11-23T05:00:03.159Z,100.00
2022-11-23T05:02:13.923Z,100.00
2022-11-23T05:04:40.537Z,100.00
2022-11-23T05:06:49.094Z,100.00
2022-11-23T05:08:57.083Z,100.00
2022-11-23T05:11:20.820Z,100.00
2022-11-23T05:13:30.409Z,100.00
2022-11-23T05:15:41.533Z,100.00
2022-11-23T05:17:49.471Z,100.00
2022-11-23T05:20:05.554Z,100.00
2022-11-23T05:22:16.093Z,100.00
2022-11-23T05:24:24.420Z,100.00
2022-11-23T05:26:53.357Z,100.00
2022-11-23T05:29:04.211Z,100.00
2022-11-23T05:31:15.495Z,100.00
2022-11-23T05:33:26.666Z,100.00
2022-11-23T05:35:35.687Z,100.00
2022-11-23T05:37:44.921Z,100.00
2022-11-23T05:39:53.766Z,100.00
2022-11-23T05:42:04.097Z,100.00
2022-11-23T05:44:17.533Z,100.00
2022-11-23T05:46:28.113Z,100.00
2022-11-23T05:48:36.063Z,100.00
2022-11-23T05:50:50.895Z,100.00
2022-11-23T05:53:08.250Z,100.00
2022-11-23T05:55:17.103Z,100.00
2022-11-23T05:57:26.148Z,100.00
2022-11-23T05:59:34.394Z,100.00
2022-11-23T06:01:46.243Z,100.00
2022-11-23T06:04:02.873Z,100.00
2022-11-23T06:06:18.120Z,100.00
2022-11-23T06:08:26.004Z,100.00
2022-11-23T06:10:34.665Z,100.00
2022-11-23T06:12:43.097Z,100.00
2022-11-23T06:14:54.546Z,100.00
2022-11-23T06:17:08.155Z,100.00
2022-11-23T06:19:24.027Z,100.00
2022-11-23T06:21:33.115Z,100.00
2022-11-23T06:23:42.418Z,100.00
2022-11-23T06:25:50.525Z,100.00
2022-11-23T06:28:04.268Z,100.00
2022-11-23T06:30:21.223Z,100.00
2022-11-23T06:32:33.266Z,100.00
2022-11-23T06:34:41.744Z,100.00
2022-11-23T06:36:49.515Z,100.00
2022-11-23T06:38:59.302Z,100.00
2022-11-23T06:41:07.735Z,100.00
2022-11-23T06:43:16.793Z,100.00
2022-11-23T06:45:25.068Z,100.00
2022-11-23T06:47:39.446Z,100.00
2022-11-23T06:49:47.325Z,100.00
2022-11-23T06:52:03.667Z,100.00
2022-11-23T06:54:13.190Z,100.00
2022-11-23T06:56:22.875Z,100.00
2022-11-23T06:58:31.181Z,100.00
2022-11-23T07:00:40.991Z,100.00
2022-11-23T07:03:00.837Z,100.00
2022-11-23T07:05:13.266Z,100.00
2022-11-23T07:07:21.897Z,100.00
2022-11-23T07:09:39.475Z,100.00
2022-11-23T07:12:04.954Z,100.00
2022-11-23T07:14:12.882Z,100.00
2022-11-23T07:16:23.885Z,100.00
2022-11-23T07:18:35.088Z,100.00
2022-11-23T07:20:44.080Z,100.00
2022-11-23T07:22:52.026Z,100.00
2022-11-23T07:24:59.953Z,100.00
2022-11-23T07:27:08.245Z,100.00
2022-11-23T07:29:17.805Z,100.00
2022-11-23T07:31:25.665Z,100.00
2022-11-23T07:33:37.040Z,100.00
2022-11-23T07:35:45.102Z,100.00
2022-11-23T07:37:53.045Z,100.00
2022-11-23T07:40:02.581Z,100.00
2022-11-23T07:42:31.921Z,100.00
2022-11-23T07:44:41.059Z,100.00
2022-11-23T07:46:51.741Z,100.00
2022-11-23T07:49:02.602Z,100.00
2022-11-23T07:51:11.214Z,100.00
2022-11-23T07:53:19.135Z,100.00
2022-11-23T07:55:28.731Z,100.00
2022-11-23T07:57:36.466Z,100.00
2022-11-23T07:59:44.270Z,100.00
2022-11-23T08:01:57.083Z,100.00
2022-11-23T08:04:09.118Z,100.00
2022-11-23T08:06:18.309Z,100.00
2022-11-23T08:08:26.176Z,100.00
2022-11-23T08:10:40.009Z,100.00
2022-11-23T08:12:53.102Z,100.00
2022-11-23T08:15:00.950Z,100.00
2022-11-23T08:17:08.954Z,100.00
2022-11-23T08:19:19.610Z,100.00
2022-11-23T08:21:27.407Z,100.00
2022-11-23T08:23:35.848Z,100.00
2022-11-23T08:25:43.870Z,100.00
2022-11-23T08:27:57.999Z,100.00
2022-11-23T08:30:05.891Z,100.00
2022-11-23T08:32:14.876Z,100.00
2022-11-23T08:34:25.325Z,100.00
2022-11-23T08:36:33.202Z,100.00
2022-11-23T08:38:41.037Z,100.00
2022-11-23T08:40:49.019Z,100.00
2022-11-23T08:42:57.378Z,100.00
2022-11-23T08:45:06.938Z,100.00
2022-11-23T08:47:14.808Z,100.00
2022-11-23T08:49:25.316Z,100.00
2022-11-23T08:51:33.162Z,100.00
2022-11-23T08:53:41.478Z,100.00
2022-11-23T08:55:49.689Z,100.00
2022-11-23T08:57:58.947Z,100.00
2022-11-23T09:00:08.530Z,100.00
2022-11-23T09:02:16.783Z,90.64
2022-11-23T09:04:27.744Z,73.53
2022-11-23T09:06:36.739Z,68.75
2022-11-23T09:08:44.442Z,57.87
2022-11-23T09:10:52.114Z,59.90
2022-11-23T09:13:01.219Z,60.86
2022-11-23T09:15:09.834Z,57.71
2022-11-23T09:17:17.699Z,52.66
2022-11-23T09:19:28.152Z,52.49
2022-11-23T09:21:39.289Z,55.42
2022-11-23T09:23:47.182Z,52.91
2022-11-23T09:25:54.920Z,48.83
2022-11-23T09:28:04.523Z,47.16
2022-11-23T09:30:14.581Z,45.50
2022-11-23T09:32:22.893Z,45.32
2022-11-23T09:34:33.642Z,45.44
2022-11-23T09:36:43.039Z,50.55
2022-11-23T09:38:56.781Z,50.76
2022-11-23T09:41:19.779Z,51.45
2022-11-23T09:43:44.367Z,57.48
2022-11-23T09:45:54.545Z,60.57
2022-11-23T09:48:37.696Z,64.28
2022-11-23T09:50:53.269Z,65.54
2022-11-23T09:53:13.453Z,67.86
2022-11-23T09:55:29.027Z,67.06
2022-11-23T09:57:38.756Z,67.75
2022-11-23T09:59:52.168Z,66.71
2022-11-23T10:02:00.931Z,60.87
2022-11-23T10:04:12.715Z,55.75
2022-11-23T10:06:25.900Z,52.16
2022-11-23T10:08:45.977Z,49.11
2022-11-23T10:11:01.702Z,48.20
2022-11-23T10:13:27.162Z,49.03
2022-11-23T10:15:42.186Z,53.27
2022-11-23T10:18:08.017Z,56.22
2022-11-23T10:20:31.794Z,55.12
2022-11-23T10:22:51.020Z,54.79
2022-11-23T10:24:59.241Z,54.86
2022-11-23T10:27:16.567Z,55.86
2022-11-23T10:29:31.578Z,52.55
2022-11-23T10:31:40.008Z,53.63
2022-11-23T10:34:02.577Z,53.16
2022-11-23T10:36:13.880Z,55.72
2022-11-23T10:38:28.989Z,58.68
2022-11-23T10:40:39.536Z,64.34
2022-11-23T10:42:50.551Z,68.72
2022-11-23T10:45:01.475Z,71.97
2022-11-23T10:47:09.274Z,73.48
2022-11-23T10:49:22.212Z,76.27
2022-11-23T10:51:35.431Z,79.75
2022-11-23T10:53:47.210Z,80.61
2022-11-23T10:55:58.183Z,82.62
2022-11-23T10:58:06.108Z,83.53
2022-11-23T11:00:19.965Z,85.73
2022-11-23T11:02:28.153Z,86.01
2022-11-23T11:04:37.104Z,85.23
2022-11-23T11:06:45.212Z,84.51
2022-11-23T11:09:00.430Z,86.07
2022-11-23T11:11:14.185Z,85.83
2022-11-23T11:13:29.947Z,86.51
2022-11-23T11:15:47.243Z,86.01
2022-11-23T11:17:58.950Z,85.01
2022-11-23T11:20:31.927Z,82.23
2022-11-23T11:22:46.259Z,83.70
2022-11-23T11:24:58.531Z,83.65
2022-11-23T11:27:09.055Z,84.73
2022-11-23T11:29:38.380Z,84.09
2022-11-23T11:31:55.236Z,83.94
2022-11-23T11:34:12.764Z,84.42
2022-11-23T11:36:21.164Z,82.61
2022-11-23T11:38:34.570Z,82.27
2022-11-23T11:40:49.917Z,80.89
2022-11-23T11:43:02.490Z,78.14
2022-11-23T11:45:19.276Z,76.52
2022-11-23T11:47:33.843Z,76.71
2022-11-23T11:49:46.997Z,76.01
2022-11-23T11:52:00.595Z,77.84
2022-11-23T11:54:18.486Z,73.89
2022-11-23T11:56:33.336Z,73.77
2022-11-23T11:58:43.236Z,73.93
2022-11-23T12:00:53.989Z,73.05
2022-11-23T12:03:12.016Z,73.87
2022-11-23T12:05:24.939Z,74.80
2022-11-23T12:07:35.247Z,74.98
2022-11-23T12:09:47.758Z,75.75
2022-11-23T12:11:58.220Z,75.14
2022-11-23T12:14:09.909Z,73.02
2022-11-23T12:16:29.421Z,69.45
2022-11-23T12:18:59.737Z,68.72
2022-11-23T12:21:11.951Z,66.91
2022-11-23T12:23:33.064Z,67.75
2022-11-23T12:25:43.485Z,69.04
2022-11-23T12:28:03.897Z,65.32
2022-11-23T12:30:23.131Z,64.13
2022-11-23T12:32:47.032Z,65.34
2022-11-23T12:35:07.427Z,65.24
2022-11-23T12:37:32.509Z,66.24
2022-11-23T12:40:03.445Z,65.21
2022-11-23T12:42:15.312Z,66.48
2022-11-23T12:45:00.101Z,65.35
2022-11-23T12:47:17.102Z,66.20
2022-11-23T12:49:39.255Z,65.25
2022-11-23T12:51:58.797Z,65.71
2022-11-23T12:54:37.470Z,65.59
2022-11-23T12:57:05.616Z,66.14
2022-11-23T12:59:14.721Z,65.69
2022-11-23T13:01:31.687Z,66.75
2022-11-23T13:04:18.246Z,67.63
2022-11-23T13:07:20.790Z,67.81
2022-11-23T13:09:45.969Z,69.10
2022-11-23T13:12:10.504Z,69.42
2022-11-23T13:14:30.620Z,70.02
2022-11-23T13:17:01.158Z,70.46
2022-11-23T13:19:24.209Z,70.16
2022-11-23T13:21:37.966Z,70.12
2022-11-23T13:23:46.863Z,70.75
2022-11-23T13:26:16.901Z,71.77
2022-11-23T13:28:32.907Z,71.34
2022-11-23T13:33:37.341Z,72.05
2022-11-23T13:36:07.047Z,72.44
2022-11-23T13:38:39.509Z,72.02
2022-11-23T13:40:49.641Z,72.26
2022-11-23T13:43:02.974Z,72.02
2022-11-23T13:45:28.705Z,71.84
2022-11-23T13:47:42.215Z,75.47
2022-11-23T13:49:55.429Z,73.30
2022-11-23T13:52:32.778Z,72.84
2022-11-23T13:54:43.186Z,72.25
2022-11-23T13:57:03.491Z,70.97
2022-11-23T13:59:43.300Z,71.92
2022-11-23T14:02:31.776Z,71.84
2022-11-23T14:04:42.214Z,70.97
2022-11-23T14:06:57.022Z,70.65
2022-11-23T14:09:13.739Z,70.89
2022-11-23T14:11:26.010Z,71.13
2022-11-23T14:13:37.170Z,69.30
2022-11-23T14:15:55.436Z,70.91
2022-11-23T14:18:39.166Z,71.55
2022-11-23T14:21:03.462Z,69.20
2022-11-23T14:23:46.996Z,66.50
2022-11-23T14:26:07.588Z,67.44
2022-11-23T14:28:35.721Z,67.52
2022-11-23T14:30:53.789Z,68.82
2022-11-23T14:33:25.264Z,67.20
2022-11-23T14:35:39.944Z,66.76
2022-11-23T14:38:04.441Z,66.11
2022-11-23T14:40:31.304Z,65.70
2022-11-23T14:42:46.603Z,67.36
2022-11-23T14:44:56.338Z,67.76
2022-11-23T14:47:06.583Z,66.71
2022-11-23T14:49:18.284Z,67.14
2022-11-23T14:51:29.179Z,67.59
2022-11-23T14:53:47.268Z,69.08
2022-11-23T14:55:58.763Z,69.36
2022-11-23T14:58:09.532Z,69.21
2022-11-23T15:00:30.490Z,69.66
2022-11-23T15:02:40.765Z,70.81
2022-11-23T15:05:06.493Z,70.59
2022-11-23T15:07:20.077Z,71.69
2022-11-23T15:09:42.596Z,71.84
2022-11-23T15:11:53.468Z,72.43
2022-11-23T15:14:05.125Z,73.44
2022-11-23T15:16:15.958Z,74.72
2022-11-23T15:18:32.796Z,75.37
2022-11-23T15:20:47.664Z,75.65
2022-11-23T15:22:55.878Z,76.21
2022-11-23T15:25:09.872Z,76.42
2022-11-23T15:27:28.448Z,77.92
2022-11-23T15:29:40.106Z,78.00
2022-11-23T15:32:06.867Z,78.03
2022-11-23T15:34:20.391Z,79.15
2022-11-23T15:36:35.834Z,79.69
2022-11-23T15:38:44.298Z,79.73
2022-11-23T15:40:54.374Z,79.68
2022-11-23T15:43:06.282Z,78.91
2022-11-23T15:46:02.938Z,78.25
2022-11-23T15:48:17.956Z,78.35
2022-11-23T15:50:33.798Z,77.95
2022-11-23T15:52:45.400Z,78.30
2022-11-23T15:54:55.352Z,79.08
2022-11-23T15:57:04.675Z,78.43
2022-11-23T15:59:31.009Z,78.39
2022-11-23T16:01:42.937Z,79.36
2022-11-23T16:03:55.805Z,79.70
2022-11-23T16:06:20.708Z,79.22
2022-11-23T16:08:29.020Z,79.91
2022-11-23T16:10:38.553Z,79.52
2022-11-23T16:12:52.093Z,78.96
2022-11-23T16:15:50.265Z,79.46
2022-11-23T16:17:58.413Z,78.49
2022-11-23T16:20:16.521Z,77.95
2022-11-23T16:22:36.693Z,78.91
2022-11-23T16:24:45.715Z,77.56
2022-11-23T16:26:53.681Z,77.65
2022-11-23T16:29:03.835Z,77.45
2022-11-23T16:31:33.024Z,77.06
2022-11-23T16:33:40.838Z,75.46
2022-11-23T16:35:49.318Z,75.31
2022-11-23T16:37:57.376Z,74.65
2022-11-23T16:40:05.216Z,74.52
2022-11-23T16:42:35.189Z,75.17
2022-11-23T16:44:43.418Z,74.52
2022-11-23T16:46:55.489Z,75.57
2022-11-23T16:49:04.490Z,74.84
2022-11-23T16:51:15.098Z,74.94
2022-11-23T16:53:26.124Z,74.40
2022-11-23T16:55:36.111Z,75.75
2022-11-23T16:57:46.991Z,76.30
2022-11-23T16:59:55.211Z,75.30
2022-11-23T17:02:06.336Z,79.58
2022-11-23T17:04:15.452Z,81.85
2022-11-23T17:06:25.248Z,81.63
2022-11-23T17:08:34.343Z,82.10
2022-11-23T17:10:45.516Z,80.73
2022-11-23T17:12:56.748Z,82.43
2022-11-23T17:15:05.185Z,81.17
2022-11-23T17:17:21.352Z,86.56
2022-11-23T17:19:31.352Z,87.68
2022-11-23T17:21:40.905Z,91.03
2022-11-23T17:23:48.882Z,95.54
2022-11-23T17:25:56.778Z,97.12
2022-11-23T17:28:04.803Z,98.64
2022-11-23T17:30:18.079Z,100.00
2022-11-23T17:32:28.955Z,98.52
2022-11-23T17:34:37.039Z,96.72
2022-11-23T17:36:45.990Z,98.65
2022-11-23T17:38:56.870Z,100.00
2022-11-23T17:41:04.692Z,100.00
2022-11-23T17:43:16.036Z,100.00
2022-11-23T17:45:23.953Z,100.00
2022-11-23T17:47:36.340Z,100.00
2022-11-23T17:49:44.669Z,100.00
2022-11-23T17:51:52.615Z,100.00
2022-11-23T17:54:01.052Z,100.00
2022-11-23T17:56:11.984Z,100.00
2022-11-23T17:58:20.739Z,100.00
2022-11-23T18:00:31.007Z,100.00
2022-11-23T18:02:44.013Z,100.00
2022-11-23T18:04:54.473Z,100.00
2022-11-23T18:07:02.913Z,100.00
2022-11-23T18:09:13.986Z,100.00
2022-11-23T18:11:23.202Z,100.00
2022-11-23T18:13:31.149Z,100.00
2022-11-23T18:15:39.206Z,100.00
2022-11-23T18:17:50.085Z,100.00
2022-11-23T18:20:00.603Z,100.00
2022-11-23T18:22:14.566Z,100.00
2022-11-23T18:24:26.076Z,100.00
2022-11-23T18:26:34.510Z,100.00
2022-11-23T18:28:43.276Z,100.00
2022-11-23T18:30:58.572Z,100.00
2022-11-23T18:33:09.241Z,100.00
2022-11-23T18:35:18.035Z,100.00
2022-11-23T18:37:26.049Z,100.00
2022-11-23T18:39:35.037Z,100.00
2022-11-23T18:41:44.125Z,100.00
2022-11-23T18:43:54.034Z,100.00
2022-11-23T18:46:02.235Z,100.00
2022-11-23T18:48:14.044Z,100.00
2022-11-23T18:50:22.474Z,100.00
2022-11-23T18:52:32.585Z,100.00
2022-11-23T18:54:40.691Z,100.00
2022-11-23T18:56:49.825Z,100.00
2022-11-23T18:58:58.118Z,100.00
2022-11-23T19:01:12.672Z,100.00
2022-11-23T19:03:23.490Z,100.00
2022-11-23T19:05:35.050Z,100.00
2022-11-23T19:07:44.000Z,100.00
2022-11-23T19:09:52.173Z,100.00
2022-11-23T19:12:01.149Z,100.00
2022-11-23T19:14:09.214Z,100.00
2022-11-23T19:16:21.634Z,100.00
2022-11-23T19:18:32.470Z,100.00
2022-11-23T19:20:40.453Z,100.00
2022-11-23T19:22:48.756Z,100.00
2022-11-23T19:24:57.084Z,100.00
2022-11-23T19:27:05.598Z,100.00
2022-11-23T19:29:20.792Z,100.00
2022-11-23T19:31:35.594Z,100.00
2022-11-23T19:33:48.537Z,100.00
2022-11-23T19:35:56.751Z,100.00
2022-11-23T19:38:05.667Z,100.00
2022-11-23T19:40:15.297Z,100.00
2022-11-23T19:42:24.029Z,100.00
2022-11-23T19:44:34.186Z,100.00
2022-11-23T19:46:42.279Z,100.00
2022-11-23T19:48:55.097Z,100.00
2022-11-23T19:51:07.708Z,100.00
2022-11-23T19:53:15.794Z,100.00
2022-11-23T19:55:24.485Z,100.00
2022-11-23T19:57:32.570Z,100.00
2022-11-23T19:59:41.126Z,100.00
2022-11-23T20:01:49.972Z,100.00
2022-11-23T20:04:09.626Z,100.00
2022-11-23T20:06:22.557Z,100.00
2022-11-23T20:08:31.390Z,100.00
2022-11-23T20:10:40.127Z,100.00
2022-11-23T20:12:48.232Z,100.00
2022-11-23T20:14:56.489Z,100.00
2022-11-23T20:17:04.823Z,100.00
2022-11-23T20:19:15.597Z,100.00
2022-11-23T20:21:23.873Z,100.00
2022-11-23T20:23:32.361Z,100.00
2022-11-23T20:25:40.837Z,100.00
2022-11-23T20:27:49.950Z,100.00
2022-11-23T20:29:57.967Z,100.00
2022-11-23T20:32:05.923Z,100.00
2022-11-23T20:34:20.579Z,100.00
2022-11-23T20:36:32.427Z,100.00
2022-11-23T20:38:42.705Z,100.00
2022-11-23T20:40:51.490Z,100.00
2022-11-23T20:43:00.260Z,100.00
2022-11-23T20:45:09.349Z,100.00
2022-11-23T20:47:17.704Z,100.00
2022-11-23T20:49:30.137Z,100.00
2022-11-23T20:51:39.627Z,100.00
2022-11-23T20:53:50.429Z,100.00
2022-11-23T20:56:04.589Z,100.00
2022-11-23T20:58:13.092Z,100.00
2022-11-23T21:00:23.217Z,100.00
2022-11-23T21:02:31.324Z,100.00
2022-11-23T21:04:43.461Z,100.00
2022-11-23T21:06:52.113Z,100.00
2022-11-23T21:09:01.320Z,100.00
2022-11-23T21:11:24.227Z,100.00
2022-11-23T21:13:49.640Z,100.00
2022-11-23T21:15:57.999Z,100.00
2022-11-23T21:18:06.037Z,100.00
2022-11-23T21:20:19.875Z,100.00
2022-11-23T21:22:34.771Z,100.00
2022-11-23T21:24:45.515Z,100.00
2022-11-23T21:26:54.549Z,100.00
2022-11-23T21:29:13.882Z,100.00
2022-11-23T21:31:24.713Z,100.00
2022-11-23T21:33:33.928Z,100.00
2022-11-23T21:35:44.604Z,100.00
2022-11-23T21:37:52.936Z,100.00
2022-11-23T21:40:01.646Z,100.00
2022-11-23T21:42:11.079Z,100.00
2022-11-23T21:44:19.319Z,100.00
2022-11-23T21:46:27.596Z,100.00
2022-11-23T21:48:35.886Z,100.00
2022-11-23T21:50:46.642Z,100.00
2022-11-23T21:52:55.149Z,100.00
2022-11-23T21:55:04.539Z,100.00
2022-11-23T21:57:13.025Z,100.00
2022-11-23T21:59:21.009Z,100.00
2022-11-23T22:01:31.777Z,100.00
2022-11-23T22:03:41.878Z,100.00
2022-11-23T22:06:01.723Z,100.00
2022-11-23T22:08:39.383Z,100.00
2022-11-23T22:10:38.863Z,100.00
2022-11-23T22:12:47.032Z,100.00
2022-11-23T22:14:55.143Z,100.00
2022-11-23T22:17:04.355Z,100.00
2022-11-23T22:19:14.385Z,100.00
2022-11-23T22:21:26.335Z,100.00
2022-11-23T22:23:34.475Z,100.00
2022-11-23T22:25:46.900Z,100.00
2022-11-23T22:27:57.438Z,100.00
2022-11-23T22:30:05.291Z,100.00
2022-11-23T22:32:16.975Z,100.00
2022-11-23T22:34:30.202Z,100.00
2022-11-23T22:36:41.551Z,100.00
2022-11-23T22:38:58.045Z,100.00
2022-11-23T22:41:12.550Z,100.00
2022-11-23T22:43:20.880Z,100.00
2022-11-23T22:45:28.888Z,100.00
2022-11-23T22:47:38.008Z,100.00
2022-11-23T22:49:47.057Z,100.00
2022-11-23T22:51:58.159Z,100.00
2022-11-23T22:54:06.924Z,100.00
2022-11-23T22:56:17.565Z,100.00
2022-11-23T22:58:26.816Z,100.00
2022-11-23T23:00:35.796Z,100.00
2022-11-23T23:02:44.416Z,100.00
2022-11-23T23:04:52.827Z,100.00
2022-11-23T23:07:03.741Z,100.00
2022-11-23T23:09:13.096Z,100.00
2022-11-23T23:11:21.337Z,100.00
2022-11-23T23:13:29.272Z,100.00
2022-11-23T23:15:38.363Z,100.00
2022-11-23T23:17:46.869Z,100.00
2022-11-23T23:19:55.507Z,100.00
2022-11-23T23:22:06.239Z,100.00
2022-11-23T23:24:17.446Z,100.00
2022-11-23T23:26:29.642Z,100.00
2022-11-23T23:28:39.088Z,100.00
2022-11-23T23:30:48.989Z,100.00
2022-11-23T23:32:59.612Z,100.00
2022-11-23T23:35:09.322Z,100.00
2022-11-23T23:37:20.398Z,100.00
2022-11-23T23:39:28.585Z,100.00
2022-11-23T23:41:42.155Z,100.00
2022-11-23T23:43:51.943Z,100.00
2022-11-23T23:46:01.494Z,100.00
2022-11-23T23:48:10.234Z,100.00
2022-11-23T23:50:21.472Z,100.00
2022-11-23T23:52:31.937Z,100.00
2022-11-23T23:54:40.413Z,100.00
2022-11-23T23:56:49.552Z,100.00
2022-11-23T23:59:01.286Z,100.00
